»·PEaware :: AA2865 KVPS-KATL

AA2865 :: KVPS-KATL

FLIGHT INFORMATION

Flight Status: Arrived
Operator: Unknown
More flights by this operator :: More flights under this callsign
Pilot: Armando C. (16967)
Aircraft: MCDONNELL-DOUGLAS MD-82
(MD82)
More flights by this aircraft type
Origin: KVPS Eglin AFB
United States
Destination: KATL Hartsfield-Jackson Atlanta
United States
More flights between these airports :: More routes between these airports
Route: JEBRO RAGGZ1
File this flight plan on PilotEdge
Remarks: PBN / A1B2 NAV / RNVD1E2A1 DAT / V DOF / 180714 REG / N888SB EET / KZTL0013 RMK / NRP SIMBRIEF
Altitude:
(Current/Filed)
33,000ft
Speed:
(Current/Filed)
453kts
Departed: 14-Jul-18 09:21 AM
Arrived: 14-Jul-18 10:12 AM
Distance/Time
Traveled:
217nm/0:51
Distance/Time
To Go:
Arrived

Flight Plot

Page will automatically refresh every two minutes.

Flight plan parsing failed; only flown route is shown


Map Options




Map Legend


Flown Route
Filed Route
Departure Airport
Arrival Airport
Navaid (VOR, NDB)
Fix

Horizontal Profiles

Position Reports

Time Latitude Longitude Heading Altitude Ground
Speed
14-Jul-18 09:09 30.476582 -86.512971 276 93ft 0kts
14-Jul-18 09:10 30.476582 -86.512971 276 93ft 0kts
14-Jul-18 09:11 30.476582 -86.512971 276 93ft 0kts
14-Jul-18 09:12 30.476582 -86.512971 276 93ft 0kts
14-Jul-18 09:13 30.476582 -86.512971 276 93ft 0kts
14-Jul-18 09:14 30.476582 -86.512971 276 93ft 0kts
14-Jul-18 09:15 30.476582 -86.512971 276 93ft 0kts
14-Jul-18 09:16 30.476582 -86.512971 276 93ft 0kts
14-Jul-18 09:17 30.476582 -86.512971 276 93ft 0kts
14-Jul-18 09:18 30.476582 -86.512979 276 93ft 0kts
14-Jul-18 09:19 30.476582 -86.512979 276 93ft 0kts
14-Jul-18 09:20 30.476630 -86.513432 274 93ft 5kts
14-Jul-18 09:21 30.475636 -86.515237 256 93ft 9kts
14-Jul-18 09:22 30.484562 -86.514964 11 93ft 128kts
14-Jul-18 09:23 30.529833 -86.507208 6 2816ft 164kts
14-Jul-18 09:24 30.571634 -86.504611 2 3935ft 214kts
14-Jul-18 09:25 30.633142 -86.499007 6 6010ft 231kts
14-Jul-18 09:26 30.698107 -86.490957 6 7999ft 242kts
14-Jul-18 09:27 30.765749 -86.484923 358 10001ft 248kts
14-Jul-18 09:28 30.833526 -86.470195 8 12019ft 254kts
14-Jul-18 09:29 30.904819 -86.471198 358 14025ft 261kts
14-Jul-18 09:30 30.989337 -86.461196 6 16356ft 267kts
14-Jul-18 09:31 31.051545 -86.452156 6 18026ft 275kts
14-Jul-18 09:32 31.125648 -86.441286 6 19966ft 282kts
14-Jul-18 09:33 31.204145 -86.430166 6 21969ft 290kts
14-Jul-18 09:34 31.288256 -86.418721 6 23197ft 334kts
14-Jul-18 09:35 31.388575 -86.409040 4 23200ft 400kts
14-Jul-18 09:36 31.501229 -86.398549 4 23174ft 416kts
14-Jul-18 09:37 31.616751 -86.387790 4 23164ft 418kts
14-Jul-18 09:38 31.732387 -86.377063 4 23164ft 418kts
14-Jul-18 09:39 31.847650 -86.366427 4 23165ft 418kts
14-Jul-18 09:40 31.963555 -86.355763 4 23165ft 418kts
14-Jul-18 09:41 32.078083 -86.345241 4 23161ft 418kts
14-Jul-18 09:42 32.192506 -86.334751 4 23156ft 418kts
14-Jul-18 09:43 32.298156 -86.291506 40 23170ft 419kts
14-Jul-18 09:44 32.382760 -86.197633 46 23153ft 418kts
14-Jul-18 09:45 32.462076 -86.097465 46 23154ft 418kts
14-Jul-18 09:46 32.541538 -85.997133 46 23174ft 418kts
14-Jul-18 09:47 32.620733 -85.897309 46 22565ft 408kts
14-Jul-18 09:48 32.694372 -85.804301 46 21003ft 370kts
14-Jul-18 09:49 32.761999 -85.718635 45 19459ft 342kts
14-Jul-18 09:50 32.824841 -85.638901 45 17940ft 325kts
14-Jul-18 09:51 32.886290 -85.560922 47 16438ft 322kts
14-Jul-18 09:52 32.929796 -85.469051 60 14950ft 317kts
14-Jul-18 09:53 32.970967 -85.378336 60 13458ft 310kts
14-Jul-18 09:54 33.010919 -85.290219 60 12041ft 300kts
14-Jul-18 09:55 33.055789 -85.209757 28 12006ft 297kts
14-Jul-18 09:56 33.127976 -85.165577 25 11028ft 293kts
14-Jul-18 09:57 33.200829 -85.124537 25 10032ft 290kts
14-Jul-18 09:58 33.273111 -85.083791 25 9035ft 287kts
14-Jul-18 09:59 33.343676 -85.043977 25 8012ft 269kts
14-Jul-18 10:00 33.408895 -85.007170 25 6983ft 251kts
14-Jul-18 10:01 33.470272 -84.972409 25 6045ft 240kts
14-Jul-18 10:02 33.530743 -84.938304 25 6036ft 244kts
14-Jul-18 10:03 33.590081 -84.905303 25 6020ft 209kts
14-Jul-18 10:04 33.628491 -84.861986 87 5982ft 197kts
14-Jul-18 10:05 33.630337 -84.796674 87 5048ft 191kts
14-Jul-18 10:06 33.631263 -84.735645 88 5049ft 189kts
14-Jul-18 10:07 33.631494 -84.677212 89 4753ft 173kts
14-Jul-18 10:08 33.631625 -84.622617 89 3905ft 169kts
14-Jul-18 10:09 33.631719 -84.568577 89 3029ft 166kts
14-Jul-18 10:10 33.631782 -84.518017 89 2184ft 134kts
14-Jul-18 10:11 33.631811 -84.477477 90 1548ft 121kts
14-Jul-18 10:12 33.631865 -84.437513 90 1030ft 105kts
14-Jul-18 10:13 33.632512 -84.425179 58 1029ft 23kts
14-Jul-18 10:14 33.633830 -84.428360 323 1029ft 14kts
14-Jul-18 10:15 33.636642 -84.427517 12 1029ft 7kts
14-Jul-18 10:16 33.637444 -84.427344 359 1029ft 0kts
14-Jul-18 10:17 33.637444 -84.427344 359 1029ft 0kts
14-Jul-18 10:18 33.638299 -84.427353 359 1029ft 8kts
14-Jul-18 10:19 33.640299 -84.428409 268 1029ft 6kts
14-Jul-18 10:20 33.640295 -84.428707 269 1029ft 0kts
14-Jul-18 10:21 33.640295 -84.428707 269 1029ft 0kts

Navigation Log

Ident Type
Flight plan parsing failed, navigation log unavailable